sensor_id;sensor_type;location;lat;lon;timestamp;P1;durP1;ratioP1;P2;durP2;ratioP2
19525;SDS011;9907;42.676;26.348;2023-03-23T00:00:54;7.43;;;5.77;;
19525;SDS011;9907;42.676;26.348;2023-03-23T00:03:20;6.97;;;6.00;;
19525;SDS011;9907;42.676;26.348;2023-03-23T00:05:46;7.47;;;6.00;;
19525;SDS011;9907;42.676;26.348;2023-03-23T00:08:21;8.40;;;5.80;;
19525;SDS011;9907;42.676;26.348;2023-03-23T00:10:50;8.90;;;5.97;;
19525;SDS011;9907;42.676;26.348;2023-03-23T00:13:25;7.90;;;5.67;;
19525;SDS011;9907;42.676;26.348;2023-03-23T00:15:51;9.07;;;6.77;;
19525;SDS011;9907;42.676;26.348;2023-03-23T00:18:20;8.23;;;6.27;;
19525;SDS011;9907;42.676;26.348;2023-03-23T00:20:53;9.13;;;6.87;;
19525;SDS011;9907;42.676;26.348;2023-03-23T00:23:22;10.27;;;7.37;;
19525;SDS011;9907;42.676;26.348;2023-03-23T00:25:50;8.50;;;6.57;;
19525;SDS011;9907;42.676;26.348;2023-03-23T00:28:18;10.50;;;7.07;;
19525;SDS011;9907;42.676;26.348;2023-03-23T00:30:54;9.73;;;6.93;;
19525;SDS011;9907;42.676;26.348;2023-03-23T00:33:37;8.03;;;6.50;;
19525;SDS011;9907;42.676;26.348;2023-03-23T00:36:06;8.03;;;6.27;;
19525;SDS011;9907;42.676;26.348;2023-03-23T00:38:33;9.43;;;6.10;;
19525;SDS011;9907;42.676;26.348;2023-03-23T00:41:00;10.17;;;6.67;;
19525;SDS011;9907;42.676;26.348;2023-03-23T00:43:29;9.60;;;6.57;;
19525;SDS011;9907;42.676;26.348;2023-03-23T00:45:56;7.87;;;6.53;;
19525;SDS011;9907;42.676;26.348;2023-03-23T00:48:26;8.93;;;6.20;;
19525;SDS011;9907;42.676;26.348;2023-03-23T00:50:53;7.60;;;6.43;;
19525;SDS011;9907;42.676;26.348;2023-03-23T00:53:19;6.83;;;5.67;;
19525;SDS011;9907;42.676;26.348;2023-03-23T00:55:46;7.10;;;5.43;;
19525;SDS011;9907;42.676;26.348;2023-03-23T00:58:13;7.70;;;6.10;;
19525;SDS011;9907;42.676;26.348;2023-03-23T01:00:39;6.43;;;5.73;;
19525;SDS011;9907;42.676;26.348;2023-03-23T01:03:05;6.80;;;5.67;;
19525;SDS011;9907;42.676;26.348;2023-03-23T01:05:36;6.20;;;5.17;;
19525;SDS011;9907;42.676;26.348;2023-03-23T01:08:02;6.80;;;5.80;;
19525;SDS011;9907;42.676;26.348;2023-03-23T01:10:29;7.20;;;6.10;;
19525;SDS011;9907;42.676;26.348;2023-03-23T01:12:58;6.90;;;6.20;;
19525;SDS011;9907;42.676;26.348;2023-03-23T01:15:26;6.23;;;5.63;;
19525;SDS011;9907;42.676;26.348;2023-03-23T01:17:53;6.53;;;5.83;;
19525;SDS011;9907;42.676;26.348;2023-03-23T01:20:19;9.50;;;6.37;;
19525;SDS011;9907;42.676;26.348;2023-03-23T01:22:45;6.90;;;6.17;;
19525;SDS011;9907;42.676;26.348;2023-03-23T01:25:11;7.77;;;6.60;;
19525;SDS011;9907;42.676;26.348;2023-03-23T01:27:38;7.77;;;6.63;;
19525;SDS011;9907;42.676;26.348;2023-03-23T01:30:05;7.43;;;5.93;;
19525;SDS011;9907;42.676;26.348;2023-03-23T01:32:33;7.33;;;5.67;;
19525;SDS011;9907;42.676;26.348;2023-03-23T01:34:58;8.53;;;6.07;;
19525;SDS011;9907;42.676;26.348;2023-03-23T01:37:24;8.43;;;6.53;;
19525;SDS011;9907;42.676;26.348;2023-03-23T01:39:54;9.00;;;6.70;;
19525;SDS011;9907;42.676;26.348;2023-03-23T01:42:22;7.60;;;5.90;;
19525;SDS011;9907;42.676;26.348;2023-03-23T01:47:14;7.43;;;5.10;;
19525;SDS011;9907;42.676;26.348;2023-03-23T01:49:45;6.43;;;5.40;;
19525;SDS011;9907;42.676;26.348;2023-03-23T01:52:18;6.33;;;5.23;;
19525;SDS011;9907;42.676;26.348;2023-03-23T01:54:48;13.63;;;5.83;;
19525;SDS011;9907;42.676;26.348;2023-03-23T01:57:16;7.30;;;5.47;;
19525;SDS011;9907;42.676;26.348;2023-03-23T01:59:45;5.80;;;5.10;;
19525;SDS011;9907;42.676;26.348;2023-03-23T02:02:13;8.23;;;5.43;;
19525;SDS011;9907;42.676;26.348;2023-03-23T02:04:40;6.83;;;5.40;;
19525;SDS011;9907;42.676;26.348;2023-03-23T02:07:06;5.67;;;5.10;;
19525;SDS011;9907;42.676;26.348;2023-03-23T02:09:32;6.27;;;5.13;;
19525;SDS011;9907;42.676;26.348;2023-03-23T02:11:58;5.53;;;4.80;;
19525;SDS011;9907;42.676;26.348;2023-03-23T02:14:24;7.40;;;5.33;;
19525;SDS011;9907;42.676;26.348;2023-03-23T02:24:51;5.03;;;4.47;;
19525;SDS011;9907;42.676;26.348;2023-03-23T02:27:40;5.57;;;4.63;;
19525;SDS011;9907;42.676;26.348;2023-03-23T02:30:11;5.40;;;4.63;;
19525;SDS011;9907;42.676;26.348;2023-03-23T02:35:21;6.40;;;5.10;;
19525;SDS011;9907;42.676;26.348;2023-03-23T02:37:49;5.60;;;4.87;;
19525;SDS011;9907;42.676;26.348;2023-03-23T02:40:26;6.97;;;4.83;;
19525;SDS011;9907;42.676;26.348;2023-03-23T02:42:56;5.17;;;4.67;;
19525;SDS011;9907;42.676;26.348;2023-03-23T02:45:24;6.07;;;4.93;;
19525;SDS011;9907;42.676;26.348;2023-03-23T02:47:52;5.27;;;4.77;;
19525;SDS011;9907;42.676;26.348;2023-03-23T02:50:20;6.17;;;5.03;;
19525;SDS011;9907;42.676;26.348;2023-03-23T02:52:49;5.97;;;4.80;;
19525;SDS011;9907;42.676;26.348;2023-03-23T02:55:18;5.57;;;5.00;;
19525;SDS011;9907;42.676;26.348;2023-03-23T02:57:46;4.90;;;4.30;;
19525;SDS011;9907;42.676;26.348;2023-03-23T03:00:13;5.30;;;4.40;;
19525;SDS011;9907;42.676;26.348;2023-03-23T03:02:42;5.57;;;5.03;;
19525;SDS011;9907;42.676;26.348;2023-03-23T03:05:33;7.43;;;4.83;;
19525;SDS011;9907;42.676;26.348;2023-03-23T03:10:51;5.77;;;5.17;;
19525;SDS011;9907;42.676;26.348;2023-03-23T03:18:48;5.73;;;5.13;;
19525;SDS011;9907;42.676;26.348;2023-03-23T03:21:23;5.13;;;4.63;;
19525;SDS011;9907;42.676;26.348;2023-03-23T03:23:53;5.07;;;4.57;;
19525;SDS011;9907;42.676;26.348;2023-03-23T03:26:23;5.80;;;4.53;;
19525;SDS011;9907;42.676;26.348;2023-03-23T03:28:54;5.47;;;4.83;;
19525;SDS011;9907;42.676;26.348;2023-03-23T03:31:21;5.27;;;4.60;;
19525;SDS011;9907;42.676;26.348;2023-03-23T03:33:51;5.00;;;4.50;;
19525;SDS011;9907;42.676;26.348;2023-03-23T03:36:21;5.43;;;4.87;;
19525;SDS011;9907;42.676;26.348;2023-03-23T03:38:53;5.80;;;5.17;;
19525;SDS011;9907;42.676;26.348;2023-03-23T03:41:18;6.83;;;5.90;;
19525;SDS011;9907;42.676;26.348;2023-03-23T03:43:45;8.17;;;5.70;;
19525;SDS011;9907;42.676;26.348;2023-03-23T03:46:10;6.80;;;6.10;;
19525;SDS011;9907;42.676;26.348;2023-03-23T03:48:36;7.87;;;6.47;;
19525;SDS011;9907;42.676;26.348;2023-03-23T03:51:02;10.77;;;6.73;;
19525;SDS011;9907;42.676;26.348;2023-03-23T03:53:28;6.77;;;6.07;;
19525;SDS011;9907;42.676;26.348;2023-03-23T03:55:55;7.27;;;6.37;;
19525;SDS011;9907;42.676;26.348;2023-03-23T03:58:24;7.43;;;6.40;;
19525;SDS011;9907;42.676;26.348;2023-03-23T04:00:50;9.77;;;6.77;;
19525;SDS011;9907;42.676;26.348;2023-03-23T04:03:18;7.63;;;6.83;;
19525;SDS011;9907;42.676;26.348;2023-03-23T04:05:44;6.90;;;6.27;;
19525;SDS011;9907;42.676;26.348;2023-03-23T04:08:11;7.00;;;6.23;;
19525;SDS011;9907;42.676;26.348;2023-03-23T04:10:36;7.07;;;5.90;;
19525;SDS011;9907;42.676;26.348;2023-03-23T04:13:02;7.10;;;6.40;;
19525;SDS011;9907;42.676;26.348;2023-03-23T04:15:29;8.80;;;6.60;;
19525;SDS011;9907;42.676;26.348;2023-03-23T04:17:56;7.83;;;6.90;;
19525;SDS011;9907;42.676;26.348;2023-03-23T04:20:22;7.93;;;6.73;;
19525;SDS011;9907;42.676;26.348;2023-03-23T04:22:48;8.10;;;6.67;;
19525;SDS011;9907;42.676;26.348;2023-03-23T04:25:15;8.37;;;7.57;;
19525;SDS011;9907;42.676;26.348;2023-03-23T04:27:42;8.60;;;7.23;;
19525;SDS011;9907;42.676;26.348;2023-03-23T04:30:09;9.10;;;7.60;;
19525;SDS011;9907;42.676;26.348;2023-03-23T04:32:36;9.20;;;6.87;;
19525;SDS011;9907;42.676;26.348;2023-03-23T04:35:06;10.53;;;7.23;;
19525;SDS011;9907;42.676;26.348;2023-03-23T04:37:34;7.60;;;6.80;;
19525;SDS011;9907;42.676;26.348;2023-03-23T04:40:03;8.87;;;7.67;;
19525;SDS011;9907;42.676;26.348;2023-03-23T04:42:34;11.00;;;8.73;;
19525;SDS011;9907;42.676;26.348;2023-03-23T04:44:59;9.83;;;8.20;;
19525;SDS011;9907;42.676;26.348;2023-03-23T04:47:27;9.37;;;7.87;;
19525;SDS011;9907;42.676;26.348;2023-03-23T04:49:56;8.67;;;7.33;;
19525;SDS011;9907;42.676;26.348;2023-03-23T04:52:25;10.87;;;8.57;;
19525;SDS011;9907;42.676;26.348;2023-03-23T04:54:53;11.17;;;8.47;;
19525;SDS011;9907;42.676;26.348;2023-03-23T04:57:21;11.57;;;10.13;;
19525;SDS011;9907;42.676;26.348;2023-03-23T04:59:47;12.50;;;10.37;;
19525;SDS011;9907;42.676;26.348;2023-03-23T05:02:13;12.90;;;10.33;;
19525;SDS011;9907;42.676;26.348;2023-03-23T05:04:40;14.17;;;11.83;;
19525;SDS011;9907;42.676;26.348;2023-03-23T05:07:06;16.33;;;12.17;;
19525;SDS011;9907;42.676;26.348;2023-03-23T05:09:32;18.10;;;13.83;;
19525;SDS011;9907;42.676;26.348;2023-03-23T05:12:03;17.03;;;12.87;;
19525;SDS011;9907;42.676;26.348;2023-03-23T05:14:30;17.90;;;14.23;;
19525;SDS011;9907;42.676;26.348;2023-03-23T05:16:56;19.27;;;15.60;;
19525;SDS011;9907;42.676;26.348;2023-03-23T05:19:21;19.60;;;15.53;;
19525;SDS011;9907;42.676;26.348;2023-03-23T05:21:46;21.57;;;16.00;;
19525;SDS011;9907;42.676;26.348;2023-03-23T05:24:12;21.73;;;17.53;;
19525;SDS011;9907;42.676;26.348;2023-03-23T05:26:37;20.20;;;16.93;;
19525;SDS011;9907;42.676;26.348;2023-03-23T05:29:03;21.17;;;16.00;;
19525;SDS011;9907;42.676;26.348;2023-03-23T05:31:30;19.43;;;16.03;;
19525;SDS011;9907;42.676;26.348;2023-03-23T05:33:55;20.53;;;16.57;;
19525;SDS011;9907;42.676;26.348;2023-03-23T05:36:21;19.97;;;16.70;;
19525;SDS011;9907;42.676;26.348;2023-03-23T05:38:48;20.40;;;16.07;;
19525;SDS011;9907;42.676;26.348;2023-03-23T05:41:15;19.20;;;16.37;;
19525;SDS011;9907;42.676;26.348;2023-03-23T05:43:41;17.33;;;15.23;;
19525;SDS011;9907;42.676;26.348;2023-03-23T05:46:07;18.17;;;14.60;;
19525;SDS011;9907;42.676;26.348;2023-03-23T05:48:33;16.00;;;13.83;;
19525;SDS011;9907;42.676;26.348;2023-03-23T05:50:59;15.97;;;14.27;;
19525;SDS011;9907;42.676;26.348;2023-03-23T05:53:25;15.33;;;13.37;;
19525;SDS011;9907;42.676;26.348;2023-03-23T05:55:51;16.43;;;14.73;;
19525;SDS011;9907;42.676;26.348;2023-03-23T05:58:17;17.07;;;14.63;;
19525;SDS011;9907;42.676;26.348;2023-03-23T06:00:43;17.30;;;14.50;;
19525;SDS011;9907;42.676;26.348;2023-03-23T06:03:10;17.20;;;14.93;;
19525;SDS011;9907;42.676;26.348;2023-03-23T06:05:41;20.67;;;17.37;;
19525;SDS011;9907;42.676;26.348;2023-03-23T06:08:09;17.67;;;15.60;;
19525;SDS011;9907;42.676;26.348;2023-03-23T06:10:34;18.30;;;15.50;;
19525;SDS011;9907;42.676;26.348;2023-03-23T06:13:01;19.73;;;16.13;;
19525;SDS011;9907;42.676;26.348;2023-03-23T06:15:27;21.63;;;15.10;;
19525;SDS011;9907;42.676;26.348;2023-03-23T06:17:57;18.20;;;15.30;;
19525;SDS011;9907;42.676;26.348;2023-03-23T06:20:24;23.87;;;15.93;;
19525;SDS011;9907;42.676;26.348;2023-03-23T06:22:49;19.53;;;16.13;;
19525;SDS011;9907;42.676;26.348;2023-03-23T06:25:16;19.53;;;17.10;;
19525;SDS011;9907;42.676;26.348;2023-03-23T06:27:43;19.67;;;15.77;;
19525;SDS011;9907;42.676;26.348;2023-03-23T06:30:09;18.83;;;15.70;;
19525;SDS011;9907;42.676;26.348;2023-03-23T06:32:35;17.70;;;15.07;;
19525;SDS011;9907;42.676;26.348;2023-03-23T06:35:01;15.97;;;13.30;;
19525;SDS011;9907;42.676;26.348;2023-03-23T06:37:28;14.60;;;12.83;;
19525;SDS011;9907;42.676;26.348;2023-03-23T06:39:54;18.57;;;16.00;;
19525;SDS011;9907;42.676;26.348;2023-03-23T06:42:19;18.33;;;15.50;;
19525;SDS011;9907;42.676;26.348;2023-03-23T06:44:49;18.77;;;16.13;;
19525;SDS011;9907;42.676;26.348;2023-03-23T06:47:14;18.13;;;16.23;;
19525;SDS011;9907;42.676;26.348;2023-03-23T06:49:40;19.97;;;15.30;;
19525;SDS011;9907;42.676;26.348;2023-03-23T06:52:06;18.37;;;15.90;;
19525;SDS011;9907;42.676;26.348;2023-03-23T06:54:31;19.13;;;16.10;;
19525;SDS011;9907;42.676;26.348;2023-03-23T06:56:57;20.37;;;17.00;;
19525;SDS011;9907;42.676;26.348;2023-03-23T06:59:22;20.40;;;16.07;;
19525;SDS011;9907;42.676;26.348;2023-03-23T07:01:48;17.33;;;15.53;;
19525;SDS011;9907;42.676;26.348;2023-03-23T07:04:14;17.87;;;14.77;;
19525;SDS011;9907;42.676;26.348;2023-03-23T07:06:39;30.50;;;17.47;;
19525;SDS011;9907;42.676;26.348;2023-03-23T07:09:05;22.23;;;18.87;;
19525;SDS011;9907;42.676;26.348;2023-03-23T07:11:31;24.63;;;16.97;;
19525;SDS011;9907;42.676;26.348;2023-03-23T07:13:57;26.27;;;20.73;;
19525;SDS011;9907;42.676;26.348;2023-03-23T07:16:25;23.67;;;18.77;;
19525;SDS011;9907;42.676;26.348;2023-03-23T07:18:54;25.80;;;19.43;;
19525;SDS011;9907;42.676;26.348;2023-03-23T07:21:20;24.27;;;20.13;;
19525;SDS011;9907;42.676;26.348;2023-03-23T07:23:47;24.37;;;20.67;;
19525;SDS011;9907;42.676;26.348;2023-03-23T07:26:18;26.60;;;21.13;;
19525;SDS011;9907;42.676;26.348;2023-03-23T07:28:45;28.50;;;20.50;;
19525;SDS011;9907;42.676;26.348;2023-03-23T07:31:19;26.50;;;20.87;;
19525;SDS011;9907;42.676;26.348;2023-03-23T07:33:44;26.13;;;21.27;;
19525;SDS011;9907;42.676;26.348;2023-03-23T07:36:10;24.63;;;18.87;;
19525;SDS011;9907;42.676;26.348;2023-03-23T07:38:36;20.90;;;18.27;;
19525;SDS011;9907;42.676;26.348;2023-03-23T07:41:08;24.40;;;18.07;;
19525;SDS011;9907;42.676;26.348;2023-03-23T07:43:38;23.80;;;20.37;;
19525;SDS011;9907;42.676;26.348;2023-03-23T07:46:04;20.30;;;16.77;;
19525;SDS011;9907;42.676;26.348;2023-03-23T07:48:30;19.47;;;16.40;;
19525;SDS011;9907;42.676;26.348;2023-03-23T07:50:59;22.57;;;17.53;;
19525;SDS011;9907;42.676;26.348;2023-03-23T07:53:25;26.37;;;21.33;;
19525;SDS011;9907;42.676;26.348;2023-03-23T07:55:50;29.00;;;23.67;;
19525;SDS011;9907;42.676;26.348;2023-03-23T07:58:17;29.90;;;23.90;;
19525;SDS011;9907;42.676;26.348;2023-03-23T08:00:45;30.70;;;22.63;;
19525;SDS011;9907;42.676;26.348;2023-03-23T08:03:11;24.47;;;21.07;;
19525;SDS011;9907;42.676;26.348;2023-03-23T08:05:37;20.13;;;17.23;;
19525;SDS011;9907;42.676;26.348;2023-03-23T08:08:03;19.80;;;17.57;;
19525;SDS011;9907;42.676;26.348;2023-03-23T08:10:29;17.83;;;15.53;;
19525;SDS011;9907;42.676;26.348;2023-03-23T08:12:55;20.53;;;17.13;;
19525;SDS011;9907;42.676;26.348;2023-03-23T08:15:22;17.70;;;15.90;;
19525;SDS011;9907;42.676;26.348;2023-03-23T08:17:49;18.23;;;16.40;;
19525;SDS011;9907;42.676;26.348;2023-03-23T08:20:16;20.63;;;17.47;;
19525;SDS011;9907;42.676;26.348;2023-03-23T08:22:44;19.93;;;17.93;;
19525;SDS011;9907;42.676;26.348;2023-03-23T08:25:20;18.50;;;16.50;;
19525;SDS011;9907;42.676;26.348;2023-03-23T08:27:46;21.67;;;17.67;;
19525;SDS011;9907;42.676;26.348;2023-03-23T08:30:14;19.27;;;17.23;;
19525;SDS011;9907;42.676;26.348;2023-03-23T08:32:42;18.13;;;16.23;;
19525;SDS011;9907;42.676;26.348;2023-03-23T08:35:09;18.03;;;16.23;;
19525;SDS011;9907;42.676;26.348;2023-03-23T08:37:37;20.17;;;17.57;;
19525;SDS011;9907;42.676;26.348;2023-03-23T08:40:03;21.37;;;18.47;;
19525;SDS011;9907;42.676;26.348;2023-03-23T08:42:34;23.83;;;21.23;;
19525;SDS011;9907;42.676;26.348;2023-03-23T08:45:01;39.53;;;34.07;;
19525;SDS011;9907;42.676;26.348;2023-03-23T08:47:26;24.20;;;20.90;;
19525;SDS011;9907;42.676;26.348;2023-03-23T08:49:52;21.63;;;19.37;;
19525;SDS011;9907;42.676;26.348;2023-03-23T08:52:19;24.33;;;20.70;;
19525;SDS011;9907;42.676;26.348;2023-03-23T08:54:45;18.27;;;15.50;;
19525;SDS011;9907;42.676;26.348;2023-03-23T08:57:12;13.17;;;11.87;;
19525;SDS011;9907;42.676;26.348;2023-03-23T08:59:39;13.53;;;12.13;;
19525;SDS011;9907;42.676;26.348;2023-03-23T09:02:06;14.40;;;11.30;;
19525;SDS011;9907;42.676;26.348;2023-03-23T09:04:35;15.43;;;13.83;;
19525;SDS011;9907;42.676;26.348;2023-03-23T09:07:01;14.27;;;12.43;;
19525;SDS011;9907;42.676;26.348;2023-03-23T09:09:27;11.73;;;10.63;;
19525;SDS011;9907;42.676;26.348;2023-03-23T09:11:53;12.07;;;9.77;;
19525;SDS011;9907;42.676;26.348;2023-03-23T09:14:19;10.77;;;9.77;;
19525;SDS011;9907;42.676;26.348;2023-03-23T09:16:44;12.00;;;10.37;;
19525;SDS011;9907;42.676;26.348;2023-03-23T09:19:10;11.17;;;9.97;;
19525;SDS011;9907;42.676;26.348;2023-03-23T09:21:37;11.07;;;9.93;;
19525;SDS011;9907;42.676;26.348;2023-03-23T09:24:04;15.27;;;10.60;;
19525;SDS011;9907;42.676;26.348;2023-03-23T09:26:30;14.50;;;10.90;;
19525;SDS011;9907;42.676;26.348;2023-03-23T09:28:57;13.77;;;11.90;;
19525;SDS011;9907;42.676;26.348;2023-03-23T09:31:23;11.53;;;10.33;;
19525;SDS011;9907;42.676;26.348;2023-03-23T09:33:52;12.93;;;10.70;;
19525;SDS011;9907;42.676;26.348;2023-03-23T09:36:21;13.17;;;11.87;;
19525;SDS011;9907;42.676;26.348;2023-03-23T09:38:47;12.07;;;10.20;;
19525;SDS011;9907;42.676;26.348;2023-03-23T09:44:25;10.93;;;9.77;;
19525;SDS011;9907;42.676;26.348;2023-03-23T09:47:24;10.20;;;9.20;;
19525;SDS011;9907;42.676;26.348;2023-03-23T09:50:02;12.57;;;10.33;;
19525;SDS011;9907;42.676;26.348;2023-03-23T09:52:53;11.50;;;10.30;;
19525;SDS011;9907;42.676;26.348;2023-03-23T09:55:22;11.40;;;10.30;;
19525;SDS011;9907;42.676;26.348;2023-03-23T10:05:36;17.43;;;12.47;;
19525;SDS011;9907;42.676;26.348;2023-03-23T10:08:13;16.40;;;12.17;;
19525;SDS011;9907;42.676;26.348;2023-03-23T10:16:29;13.10;;;11.00;;
19525;SDS011;9907;42.676;26.348;2023-03-23T10:21:47;11.07;;;9.53;;
19525;SDS011;9907;42.676;26.348;2023-03-23T10:24:19;11.47;;;10.27;;
19525;SDS011;9907;42.676;26.348;2023-03-23T10:29:41;12.10;;;10.90;;
19525;SDS011;9907;42.676;26.348;2023-03-23T10:32:16;11.63;;;10.53;;
19525;SDS011;9907;42.676;26.348;2023-03-23T10:37:25;13.07;;;11.37;;
19525;SDS011;9907;42.676;26.348;2023-03-23T10:40:01;12.67;;;11.37;;
19525;SDS011;9907;42.676;26.348;2023-03-23T10:42:35;12.63;;;11.30;;
19525;SDS011;9907;42.676;26.348;2023-03-23T10:45:22;13.23;;;11.87;;
19525;SDS011;9907;42.676;26.348;2023-03-23T10:50:42;12.60;;;11.30;;
19525;SDS011;9907;42.676;26.348;2023-03-23T10:53:29;12.53;;;11.23;;
19525;SDS011;9907;42.676;26.348;2023-03-23T10:56:18;13.70;;;11.30;;
19525;SDS011;9907;42.676;26.348;2023-03-23T10:58:52;13.03;;;10.57;;
19525;SDS011;9907;42.676;26.348;2023-03-23T11:01:19;12.57;;;10.80;;
19525;SDS011;9907;42.676;26.348;2023-03-23T11:03:47;12.83;;;10.93;;
19525;SDS011;9907;42.676;26.348;2023-03-23T11:08:49;13.30;;;11.70;;
19525;SDS011;9907;42.676;26.348;2023-03-23T11:11:29;17.43;;;11.43;;
19525;SDS011;9907;42.676;26.348;2023-03-23T11:13:59;12.80;;;11.07;;
19525;SDS011;9907;42.676;26.348;2023-03-23T11:16:31;12.63;;;10.67;;
19525;SDS011;9907;42.676;26.348;2023-03-23T11:18:59;10.87;;;9.80;;
19525;SDS011;9907;42.676;26.348;2023-03-23T11:21:36;12.03;;;10.77;;
19525;SDS011;9907;42.676;26.348;2023-03-23T11:24:03;12.03;;;10.80;;
19525;SDS011;9907;42.676;26.348;2023-03-23T11:26:33;10.83;;;9.83;;
19525;SDS011;9907;42.676;26.348;2023-03-23T11:29:04;10.53;;;9.57;;
19525;SDS011;9907;42.676;26.348;2023-03-23T11:31:36;10.07;;;9.07;;
19525;SDS011;9907;42.676;26.348;2023-03-23T11:34:16;10.53;;;9.47;;
19525;SDS011;9907;42.676;26.348;2023-03-23T11:36:50;10.30;;;9.30;;
19525;SDS011;9907;42.676;26.348;2023-03-23T11:39:26;13.60;;;10.50;;
19525;SDS011;9907;42.676;26.348;2023-03-23T11:41:59;9.87;;;8.97;;
19525;SDS011;9907;42.676;26.348;2023-03-23T11:44:34;9.97;;;9.00;;
19525;SDS011;9907;42.676;26.348;2023-03-23T11:52:33;12.47;;;9.63;;
19525;SDS011;9907;42.676;26.348;2023-03-23T11:58:00;9.57;;;8.57;;
19525;SDS011;9907;42.676;26.348;2023-03-23T12:00:30;10.63;;;9.53;;
19525;SDS011;9907;42.676;26.348;2023-03-23T12:06:09;12.47;;;9.40;;
19525;SDS011;9907;42.676;26.348;2023-03-23T12:14:47;9.60;;;8.70;;
19525;SDS011;9907;42.676;26.348;2023-03-23T12:39:16;10.00;;;8.90;;
19525;SDS011;9907;42.676;26.348;2023-03-23T12:42:06;9.37;;;8.47;;
19525;SDS011;9907;42.676;26.348;2023-03-23T12:44:54;10.03;;;8.97;;
19525;SDS011;9907;42.676;26.348;2023-03-23T12:47:50;9.30;;;8.47;;
19525;SDS011;9907;42.676;26.348;2023-03-23T12:50:35;10.77;;;9.10;;
19525;SDS011;9907;42.676;26.348;2023-03-23T12:53:23;9.50;;;8.60;;
19525;SDS011;9907;42.676;26.348;2023-03-23T12:56:06;10.03;;;8.63;;
19525;SDS011;9907;42.676;26.348;2023-03-23T12:58:44;10.40;;;9.40;;
19525;SDS011;9907;42.676;26.348;2023-03-23T13:03:55;10.90;;;9.77;;
19525;SDS011;9907;42.676;26.348;2023-03-23T13:08:53;10.30;;;9.30;;
19525;SDS011;9907;42.676;26.348;2023-03-23T13:11:33;10.83;;;9.13;;
19525;SDS011;9907;42.676;26.348;2023-03-23T13:14:03;9.03;;;8.00;;
19525;SDS011;9907;42.676;26.348;2023-03-23T13:16:35;8.13;;;7.33;;
19525;SDS011;9907;42.676;26.348;2023-03-23T13:21:46;8.47;;;6.93;;
19525;SDS011;9907;42.676;26.348;2023-03-23T13:24:22;9.73;;;7.40;;
19525;SDS011;9907;42.676;26.348;2023-03-23T13:26:51;8.47;;;7.67;;
19525;SDS011;9907;42.676;26.348;2023-03-23T13:29:20;19.10;;;9.90;;
19525;SDS011;9907;42.676;26.348;2023-03-23T13:31:50;7.87;;;7.07;;
19525;SDS011;9907;42.676;26.348;2023-03-23T13:39:28;8.40;;;7.53;;
19525;SDS011;9907;42.676;26.348;2023-03-23T13:42:00;7.93;;;7.23;;
19525;SDS011;9907;42.676;26.348;2023-03-23T13:49:45;7.97;;;7.10;;
19525;SDS011;9907;42.676;26.348;2023-03-23T13:57:54;10.60;;;8.50;;
19525;SDS011;9907;42.676;26.348;2023-03-23T14:00:35;9.50;;;8.03;;
19525;SDS011;9907;42.676;26.348;2023-03-23T14:10:56;8.40;;;7.60;;
19525;SDS011;9907;42.676;26.348;2023-03-23T14:16:21;7.57;;;6.87;;
19525;SDS011;9907;42.676;26.348;2023-03-23T14:18:51;7.63;;;6.83;;
19525;SDS011;9907;42.676;26.348;2023-03-23T14:21:22;7.27;;;6.57;;
19525;SDS011;9907;42.676;26.348;2023-03-23T14:24:00;9.00;;;6.83;;
19525;SDS011;9907;42.676;26.348;2023-03-23T14:26:28;8.77;;;7.13;;
19525;SDS011;9907;42.676;26.348;2023-03-23T14:28:53;11.60;;;6.93;;
19525;SDS011;9907;42.676;26.348;2023-03-23T14:31:21;8.93;;;7.60;;
19525;SDS011;9907;42.676;26.348;2023-03-23T14:33:49;8.67;;;7.03;;
19525;SDS011;9907;42.676;26.348;2023-03-23T14:36:23;7.83;;;7.03;;
19525;SDS011;9907;42.676;26.348;2023-03-23T14:39:35;11.73;;;7.40;;
19525;SDS011;9907;42.676;26.348;2023-03-23T14:41:50;8.30;;;7.60;;
19525;SDS011;9907;42.676;26.348;2023-03-23T14:44:22;8.17;;;7.30;;
19525;SDS011;9907;42.676;26.348;2023-03-23T14:46:50;7.73;;;6.93;;
19525;SDS011;9907;42.676;26.348;2023-03-23T14:49:17;8.00;;;7.20;;
19525;SDS011;9907;42.676;26.348;2023-03-23T14:51:49;21.03;;;9.60;;
19525;SDS011;9907;42.676;26.348;2023-03-23T14:54:26;9.63;;;8.13;;
19525;SDS011;9907;42.676;26.348;2023-03-23T14:56:54;8.43;;;7.53;;
19525;SDS011;9907;42.676;26.348;2023-03-23T14:59:20;9.87;;;7.47;;
19525;SDS011;9907;42.676;26.348;2023-03-23T15:01:47;8.37;;;7.57;;
19525;SDS011;9907;42.676;26.348;2023-03-23T15:04:16;9.23;;;7.53;;
19525;SDS011;9907;42.676;26.348;2023-03-23T15:06:46;9.83;;;8.60;;
19525;SDS011;9907;42.676;26.348;2023-03-23T15:09:26;12.37;;;9.27;;
19525;SDS011;9907;42.676;26.348;2023-03-23T15:11:56;10.93;;;9.60;;
19525;SDS011;9907;42.676;26.348;2023-03-23T15:14:24;15.03;;;9.37;;
19525;SDS011;9907;42.676;26.348;2023-03-23T15:17:10;12.63;;;8.97;;
19525;SDS011;9907;42.676;26.348;2023-03-23T15:19:44;11.27;;;9.27;;
19525;SDS011;9907;42.676;26.348;2023-03-23T15:22:16;11.63;;;9.67;;
19525;SDS011;9907;42.676;26.348;2023-03-23T15:25:39;12.30;;;9.37;;
19525;SDS011;9907;42.676;26.348;2023-03-23T15:27:49;11.63;;;9.10;;
19525;SDS011;9907;42.676;26.348;2023-03-23T15:32:49;10.47;;;9.33;;
19525;SDS011;9907;42.676;26.348;2023-03-23T15:35:18;12.53;;;9.70;;
19525;SDS011;9907;42.676;26.348;2023-03-23T15:38:20;11.57;;;8.93;;
19525;SDS011;9907;42.676;26.348;2023-03-23T15:41:00;20.60;;;9.37;;
19525;SDS011;9907;42.676;26.348;2023-03-23T15:43:32;79.57;;;20.50;;
19525;SDS011;9907;42.676;26.348;2023-03-23T15:46:02;13.20;;;11.10;;
19525;SDS011;9907;42.676;26.348;2023-03-23T15:48:52;16.73;;;10.53;;
19525;SDS011;9907;42.676;26.348;2023-03-23T15:51:35;11.67;;;9.70;;
19525;SDS011;9907;42.676;26.348;2023-03-23T15:54:02;14.07;;;9.53;;
19525;SDS011;9907;42.676;26.348;2023-03-23T15:56:28;13.60;;;11.93;;
19525;SDS011;9907;42.676;26.348;2023-03-23T15:58:57;13.57;;;11.60;;
19525;SDS011;9907;42.676;26.348;2023-03-23T16:01:25;14.17;;;12.60;;
19525;SDS011;9907;42.676;26.348;2023-03-23T16:03:54;14.63;;;12.10;;
19525;SDS011;9907;42.676;26.348;2023-03-23T16:06:23;13.50;;;10.73;;
19525;SDS011;9907;42.676;26.348;2023-03-23T16:08:54;12.07;;;9.60;;
19525;SDS011;9907;42.676;26.348;2023-03-23T16:11:20;10.53;;;9.53;;
19525;SDS011;9907;42.676;26.348;2023-03-23T16:13:47;13.13;;;11.73;;
19525;SDS011;9907;42.676;26.348;2023-03-23T16:16:14;12.70;;;11.13;;
19525;SDS011;9907;42.676;26.348;2023-03-23T16:18:41;15.47;;;13.67;;
19525;SDS011;9907;42.676;26.348;2023-03-23T16:21:07;16.60;;;13.73;;
19525;SDS011;9907;42.676;26.348;2023-03-23T16:23:33;14.90;;;12.90;;
19525;SDS011;9907;42.676;26.348;2023-03-23T16:25:59;13.47;;;11.80;;
19525;SDS011;9907;42.676;26.348;2023-03-23T16:28:24;11.57;;;9.90;;
19525;SDS011;9907;42.676;26.348;2023-03-23T16:30:50;11.37;;;10.23;;
19525;SDS011;9907;42.676;26.348;2023-03-23T16:33:15;12.50;;;11.13;;
19525;SDS011;9907;42.676;26.348;2023-03-23T16:35:41;14.97;;;12.17;;
19525;SDS011;9907;42.676;26.348;2023-03-23T16:38:09;12.80;;;10.93;;
19525;SDS011;9907;42.676;26.348;2023-03-23T16:40:43;13.00;;;11.33;;
19525;SDS011;9907;42.676;26.348;2023-03-23T16:43:10;12.80;;;11.00;;
19525;SDS011;9907;42.676;26.348;2023-03-23T16:45:37;15.27;;;12.37;;
19525;SDS011;9907;42.676;26.348;2023-03-23T16:48:04;12.37;;;10.97;;
19525;SDS011;9907;42.676;26.348;2023-03-23T16:50:32;19.43;;;17.50;;
19525;SDS011;9907;42.676;26.348;2023-03-23T16:52:58;23.87;;;18.43;;
19525;SDS011;9907;42.676;26.348;2023-03-23T16:55:24;19.43;;;15.13;;